(°C)
(°C)
-1°
-2°
-2°
-3°
-3°
ISI
ISI
ISI
ISI
ISI
ISI
ISI
(km/h)
24-42
23-37
22-37
21-36
20-35
19-35
19-36
(mm)
1
0
0
0
0
0
0.4
(%)
54
43
50
36
35
31
50

Podizanje Sunca

/ -32.3°
sun-icon
UV 1
07:06
19:08
Opadajući mesec (242°)
20:35
13:32

METAR za 57.92°S 56.02°I (USPP)

Vreme Uslovi Temperatura/
Tačka rose
Vetar Vidljivost Prognoza Oblaci Pritisak Promena Neobrađeno
VFR 7°C / 3°C 100º 16kt >10km - Clouds and Visibility OK 1016 No Significant change. Runway 03: Damp, 51-100% contamination with <1mm, friction coefficient 0.55. USPP 261900Z 10008MPS CAVOK 07/03 Q1016 R03/190055 NOSIG RMK QFE751
VFR 7°C / 4°C 100º 16kt >10km Light Rain 1.00mm precipitation Vertical Visibility of 0ft. 1016 No Significant change. Runway 03: Damp, 51-100% contamination with <1mm, friction coefficient 0.55. USPP 261830Z 10008MPS 9999 -RA NSC 07/04 Q1016 R03/190055 NOSIG RMK QFE751
VFR 7°C / 4°C 100º 16kt >10km - Clouds and Visibility OK 1015 No Significant change. Runway 03: Damp, 51-100% contamination with <1mm, friction coefficient 0.55. USPP 261800Z 10008MPS CAVOK 07/04 Q1015 R03/190055 NOSIG RMK QFE751
VFR 7°C / 5°C 100º 17kt >10km Light Rain 1.00mm precipitation Vertical Visibility of 0ft. 1015 No Significant change. Runway 03: Damp, 51-100% contamination with <1mm, friction coefficient 0.55. USPP 261730Z 10009MPS 9999 -RA SCT026 07/05 Q1015 R03/190055 NOSIG RMK QFE750
VFR 7°C / 5°C 100º 16kt >10km Light Rain 1.00mm precipitation Vertical Visibility of 0ft. 1015 No Significant change. Runway 03: Damp, 51-100% contamination with <1mm, friction coefficient 0.55. USPP 261700Z 10008MPS 9999 -RA SCT016 07/05 Q1015 R03/190055 NOSIG RMK QFE750
VFR 7°C / 5°C 100º 17kt >10km Light Rain 1.00mm precipitation Vertical Visibility of 0ft. 1015 No Significant change. Runway 03: Damp, 51-100% contamination with <1mm, friction coefficient 0.55. USPP 261630Z 10009MPS 9999 -RA SCT041 07/05 Q1015 R03/190055 NOSIG RMK QFE750
VFR 8°C / 5°C 100º 17kt >10km Light Rain 1.00mm precipitation Vertical Visibility of 0ft. 1014 No Significant change. Runway 03: Damp, 51-100% contamination with <1mm, friction coefficient 0.55. USPP 261600Z 10009MPS 9999 -RA SCT036 08/05 Q1014 R03/190055 NOSIG RMK QFE750
VFR 8°C / 4°C 110º 16kt >10km - Scattered Clouds 2300ft 1014 No Significant change. Runway 03: Damp, 51-100% contamination with <1mm, friction coefficient 0.55. USPP 261530Z 11008MPS 9999 SCT023 08/04 Q1014 R03/190055 NOSIG RMK QFE750
VFR 9°C / 4°C 110º 14kt >10km - Scattered Clouds 2800ft 1014 No Significant change. Runway 03: Damp, 51-100% contamination with <1mm, friction coefficient 0.55. USPP 261500Z 11007MPS 9999 SCT028 09/04 Q1014 R03/190055 NOSIG RMK QFE750
VFR 9°C / 5°C 100º 14kt >10km - Scattered Clouds 2800ft 1014 No Significant change. Runway 03: Damp, 51-100% contamination with <1mm, friction coefficient 0.55. USPP 261430Z 10007MPS 9999 SCT028 09/05 Q1014 R03/190055 NOSIG RMK QFE750
VFR 9°C / 5°C 100º 16kt >10km - Scattered Clouds 2800ft 1013 No Significant change. Runway 03: Damp, 51-100% contamination with <1mm, friction coefficient 0.55. USPP 261400Z 10008MPS 9999 SCT028 09/05 Q1013 R03/190055 NOSIG RMK QFE749
VFR 9°C / 5°C 100º 12kt >10km - Scattered Clouds 4600ft 1013 No Significant change. Runway 03: Damp, 51-100% contamination with <1mm, friction coefficient 0.55. USPP 261330Z 10006MPS 9999 SCT046 09/05 Q1013 R03/190055 NOSIG RMK QFE749
VFR 9°C / 5°C 100º 14kt >10km - Scattered Clouds 2500ft 1013 No Significant change. Runway 03: Damp, 51-100% contamination with <1mm, friction coefficient 0.55. USPP 261300Z 10007MPS 9999 SCT025 09/05 Q1013 R03/190055 NOSIG RMK QFE749
VFR 9°C / 5°C 90º 16kt >10km - Clouds and Visibility OK 1012 No Significant change. Runway 03: Damp, 51-100% contamination with <1mm, friction coefficient 0.55. USPP 261230Z 09008MPS CAVOK 09/05 Q1012 R03/190055 NOSIG RMK QFE749
VFR 10°C / 5°C 90º 16kt >10km - Clouds and Visibility OK 1012 No Significant change. Runway 03: Damp, 51-100% contamination with <1mm, friction coefficient 0.55. USPP 261200Z 09008MPS CAVOK 10/05 Q1012 R03/190055 NOSIG RMK QFE748
VFR 10°C / 4°C 100º 17kt. Wind Shear present on Runway 03. >10km - Clouds and Visibility OK 1012 No Significant change. Runway 03: Damp, 51-100% contamination with <1mm, friction coefficient 0.55. USPP 261130Z 10009MPS CAVOK 10/04 Q1012 WS R03 R03/190055 NOSIG RMK QFE748
VFR 11°C / 4°C 100º 12kt. Wind Shear present on Runway 03. >10km - Clouds and Visibility OK 1012 No Significant change. Runway 03: Damp, 51-100% contamination with <1mm, friction coefficient 0.55. USPP 261100Z 10006MPS CAVOK 11/04 Q1012 WS R03 R03/190055 NOSIG RMK QFE748
VFR 11°C / 4°C 100º 10kt >10km - Clouds and Visibility OK 1012 No Significant change. Runway 03: Damp, 51-100% contamination with <1mm, friction coefficient 0.55. USPP 261030Z 10005MPS CAVOK 11/04 Q1012 R03/190055 NOSIG RMK QFE748
VFR 11°C / 4°C 110º 12kt. Wind Shear present on Runway 03. >10km - Clouds and Visibility OK 1012 No Significant change. Runway 03: Damp, 51-100% contamination with <1mm, friction coefficient 0.55. USPP 261000Z 11006MPS CAVOK 11/04 Q1012 WS R03 R03/190055 NOSIG RMK QFE748
VFR 11°C / 4°C 100º 12kt. Wind Shear present on Runway 03. >10km - Clouds and Visibility OK 1011 No Significant change. Runway 03: Damp, 51-100% contamination with <1mm, friction coefficient 0.55. USPP 260930Z 10006MPS CAVOK 11/04 Q1011 WS R03 R03/190055 NOSIG RMK QFE748
VFR 10°C / 4°C 100º 12kt >10km - Clouds and Visibility OK 1011 No Significant change. Runway 03: Damp, 51-100% contamination with <1mm, friction coefficient 0.55. USPP 260900Z 10006MPS CAVOK 10/04 Q1011 R03/190055 NOSIG RMK QFE748
VFR 10°C / 3°C 110º 14kt >10km - Clouds and Visibility OK 1011 No Significant change. Runway 03: Damp, 51-100% contamination with <1mm, friction coefficient 0.55. USPP 260830Z 11007MPS CAVOK 10/03 Q1011 R03/190055 NOSIG RMK QFE748
VFR 10°C / 3°C 90º 12kt >10km - Clouds and Visibility OK 1011 No Significant change. Runway 03: Damp, 51-100% contamination with <1mm, friction coefficient 0.55. USPP 260800Z 09006MPS CAVOK 10/03 Q1011 R03/190055 NOSIG RMK QFE748
VFR 10°C / 4°C 90º 12kt >10km - Clouds and Visibility OK 1011 No Significant change. Runway 03: Damp, 51-100% contamination with <1mm, friction coefficient 0.55. USPP 260730Z 09006MPS CAVOK 10/04 Q1011 R03/190055 NOSIG RMK QFE748

VFR

7°C / 3°C

[Više]
Vetar 100º 16kt
Vidljivost >10km
Prognoza -
Oblaci Clouds and Visibility OK
Pritisak 1016
Promena No Significant change. Runway 03: Damp, 51-100% contamination with <1mm, friction coefficient 0.55.
Neobrađeno USPP 261900Z 10008MPS CAVOK 07/03 Q1016 R03/190055 NOSIG RMK QFE751

VFR

7°C / 4°C

[Više]
Vetar 100º 16kt
Vidljivost >10km
Prognoza Light Rain 1.00mm precipitation
Oblaci Vertical Visibility of 0ft.
Pritisak 1016
Promena No Significant change. Runway 03: Damp, 51-100% contamination with <1mm, friction coefficient 0.55.
Neobrađeno USPP 261830Z 10008MPS 9999 -RA NSC 07/04 Q1016 R03/190055 NOSIG RMK QFE751

VFR

7°C / 4°C

[Više]
Vetar 100º 16kt
Vidljivost >10km
Prognoza -
Oblaci Clouds and Visibility OK
Pritisak 1015
Promena No Significant change. Runway 03: Damp, 51-100% contamination with <1mm, friction coefficient 0.55.
Neobrađeno USPP 261800Z 10008MPS CAVOK 07/04 Q1015 R03/190055 NOSIG RMK QFE751

VFR

7°C / 5°C

[Više]
Vetar 100º 17kt
Vidljivost >10km
Prognoza Light Rain 1.00mm precipitation
Oblaci Vertical Visibility of 0ft.
Pritisak 1015
Promena No Significant change. Runway 03: Damp, 51-100% contamination with <1mm, friction coefficient 0.55.
Neobrađeno USPP 261730Z 10009MPS 9999 -RA SCT026 07/05 Q1015 R03/190055 NOSIG RMK QFE750

VFR

7°C / 5°C

[Više]
Vetar 100º 16kt
Vidljivost >10km
Prognoza Light Rain 1.00mm precipitation
Oblaci Vertical Visibility of 0ft.
Pritisak 1015
Promena No Significant change. Runway 03: Damp, 51-100% contamination with <1mm, friction coefficient 0.55.
Neobrađeno USPP 261700Z 10008MPS 9999 -RA SCT016 07/05 Q1015 R03/190055 NOSIG RMK QFE750

VFR

7°C / 5°C

[Više]
Vetar 100º 17kt
Vidljivost >10km
Prognoza Light Rain 1.00mm precipitation
Oblaci Vertical Visibility of 0ft.
Pritisak 1015
Promena No Significant change. Runway 03: Damp, 51-100% contamination with <1mm, friction coefficient 0.55.
Neobrađeno USPP 261630Z 10009MPS 9999 -RA SCT041 07/05 Q1015 R03/190055 NOSIG RMK QFE750

VFR

8°C / 5°C

[Više]
Vetar 100º 17kt
Vidljivost >10km
Prognoza Light Rain 1.00mm precipitation
Oblaci Vertical Visibility of 0ft.
Pritisak 1014
Promena No Significant change. Runway 03: Damp, 51-100% contamination with <1mm, friction coefficient 0.55.
Neobrađeno USPP 261600Z 10009MPS 9999 -RA SCT036 08/05 Q1014 R03/190055 NOSIG RMK QFE750

VFR

8°C / 4°C

[Više]
Vetar 110º 16kt
Vidljivost >10km
Prognoza -
Oblaci Scattered Clouds 2300ft
Pritisak 1014
Promena No Significant change. Runway 03: Damp, 51-100% contamination with <1mm, friction coefficient 0.55.
Neobrađeno USPP 261530Z 11008MPS 9999 SCT023 08/04 Q1014 R03/190055 NOSIG RMK QFE750

VFR

9°C / 4°C

[Više]
Vetar 110º 14kt
Vidljivost >10km
Prognoza -
Oblaci Scattered Clouds 2800ft
Pritisak 1014
Promena No Significant change. Runway 03: Damp, 51-100% contamination with <1mm, friction coefficient 0.55.
Neobrađeno USPP 261500Z 11007MPS 9999 SCT028 09/04 Q1014 R03/190055 NOSIG RMK QFE750

VFR

9°C / 5°C

[Više]
Vetar 100º 14kt
Vidljivost >10km
Prognoza -
Oblaci Scattered Clouds 2800ft
Pritisak 1014
Promena No Significant change. Runway 03: Damp, 51-100% contamination with <1mm, friction coefficient 0.55.
Neobrađeno USPP 261430Z 10007MPS 9999 SCT028 09/05 Q1014 R03/190055 NOSIG RMK QFE750

VFR

9°C / 5°C

[Više]
Vetar 100º 16kt
Vidljivost >10km
Prognoza -
Oblaci Scattered Clouds 2800ft
Pritisak 1013
Promena No Significant change. Runway 03: Damp, 51-100% contamination with <1mm, friction coefficient 0.55.
Neobrađeno USPP 261400Z 10008MPS 9999 SCT028 09/05 Q1013 R03/190055 NOSIG RMK QFE749

VFR

9°C / 5°C

[Više]
Vetar 100º 12kt
Vidljivost >10km
Prognoza -
Oblaci Scattered Clouds 4600ft
Pritisak 1013
Promena No Significant change. Runway 03: Damp, 51-100% contamination with <1mm, friction coefficient 0.55.
Neobrađeno USPP 261330Z 10006MPS 9999 SCT046 09/05 Q1013 R03/190055 NOSIG RMK QFE749

VFR

9°C / 5°C

[Više]
Vetar 100º 14kt
Vidljivost >10km
Prognoza -
Oblaci Scattered Clouds 2500ft
Pritisak 1013
Promena No Significant change. Runway 03: Damp, 51-100% contamination with <1mm, friction coefficient 0.55.
Neobrađeno USPP 261300Z 10007MPS 9999 SCT025 09/05 Q1013 R03/190055 NOSIG RMK QFE749

VFR

9°C / 5°C

[Više]
Vetar 90º 16kt
Vidljivost >10km
Prognoza -
Oblaci Clouds and Visibility OK
Pritisak 1012
Promena No Significant change. Runway 03: Damp, 51-100% contamination with <1mm, friction coefficient 0.55.
Neobrađeno USPP 261230Z 09008MPS CAVOK 09/05 Q1012 R03/190055 NOSIG RMK QFE749

VFR

10°C / 5°C

[Više]
Vetar 90º 16kt
Vidljivost >10km
Prognoza -
Oblaci Clouds and Visibility OK
Pritisak 1012
Promena No Significant change. Runway 03: Damp, 51-100% contamination with <1mm, friction coefficient 0.55.
Neobrađeno USPP 261200Z 09008MPS CAVOK 10/05 Q1012 R03/190055 NOSIG RMK QFE748

VFR

10°C / 4°C

[Više]
Vetar 100º 17kt. Wind Shear present on Runway 03.
Vidljivost >10km
Prognoza -
Oblaci Clouds and Visibility OK
Pritisak 1012
Promena No Significant change. Runway 03: Damp, 51-100% contamination with <1mm, friction coefficient 0.55.
Neobrađeno USPP 261130Z 10009MPS CAVOK 10/04 Q1012 WS R03 R03/190055 NOSIG RMK QFE748

VFR

11°C / 4°C

[Više]
Vetar 100º 12kt. Wind Shear present on Runway 03.
Vidljivost >10km
Prognoza -
Oblaci Clouds and Visibility OK
Pritisak 1012
Promena No Significant change. Runway 03: Damp, 51-100% contamination with <1mm, friction coefficient 0.55.
Neobrađeno USPP 261100Z 10006MPS CAVOK 11/04 Q1012 WS R03 R03/190055 NOSIG RMK QFE748

VFR

11°C / 4°C

[Više]
Vetar 100º 10kt
Vidljivost >10km
Prognoza -
Oblaci Clouds and Visibility OK
Pritisak 1012
Promena No Significant change. Runway 03: Damp, 51-100% contamination with <1mm, friction coefficient 0.55.
Neobrađeno USPP 261030Z 10005MPS CAVOK 11/04 Q1012 R03/190055 NOSIG RMK QFE748

VFR

11°C / 4°C

[Više]
Vetar 110º 12kt. Wind Shear present on Runway 03.
Vidljivost >10km
Prognoza -
Oblaci Clouds and Visibility OK
Pritisak 1012
Promena No Significant change. Runway 03: Damp, 51-100% contamination with <1mm, friction coefficient 0.55.
Neobrađeno USPP 261000Z 11006MPS CAVOK 11/04 Q1012 WS R03 R03/190055 NOSIG RMK QFE748

VFR

11°C / 4°C

[Više]
Vetar 100º 12kt. Wind Shear present on Runway 03.
Vidljivost >10km
Prognoza -
Oblaci Clouds and Visibility OK
Pritisak 1011
Promena No Significant change. Runway 03: Damp, 51-100% contamination with <1mm, friction coefficient 0.55.
Neobrađeno USPP 260930Z 10006MPS CAVOK 11/04 Q1011 WS R03 R03/190055 NOSIG RMK QFE748

VFR

10°C / 4°C

[Više]
Vetar 100º 12kt
Vidljivost >10km
Prognoza -
Oblaci Clouds and Visibility OK
Pritisak 1011
Promena No Significant change. Runway 03: Damp, 51-100% contamination with <1mm, friction coefficient 0.55.
Neobrađeno USPP 260900Z 10006MPS CAVOK 10/04 Q1011 R03/190055 NOSIG RMK QFE748

VFR

10°C / 3°C

[Više]
Vetar 110º 14kt
Vidljivost >10km
Prognoza -
Oblaci Clouds and Visibility OK
Pritisak 1011
Promena No Significant change. Runway 03: Damp, 51-100% contamination with <1mm, friction coefficient 0.55.
Neobrađeno USPP 260830Z 11007MPS CAVOK 10/03 Q1011 R03/190055 NOSIG RMK QFE748

VFR

10°C / 3°C

[Više]
Vetar 90º 12kt
Vidljivost >10km
Prognoza -
Oblaci Clouds and Visibility OK
Pritisak 1011
Promena No Significant change. Runway 03: Damp, 51-100% contamination with <1mm, friction coefficient 0.55.
Neobrađeno USPP 260800Z 09006MPS CAVOK 10/03 Q1011 R03/190055 NOSIG RMK QFE748

VFR

10°C / 4°C

[Više]
Vetar 90º 12kt
Vidljivost >10km
Prognoza -
Oblaci Clouds and Visibility OK
Pritisak 1011
Promena No Significant change. Runway 03: Damp, 51-100% contamination with <1mm, friction coefficient 0.55.
Neobrađeno USPP 260730Z 09006MPS CAVOK 10/04 Q1011 R03/190055 NOSIG RMK QFE748

TAF za 57.92°S 56.02°I (USPP)

From till


From till Wind 100º 10kt. Gust 31kt. Visibility 8000m. Light Showers Rain . Broken Clouds 1600ft.
Becoming from till Wind 100º 10kt. Gust 31kt. Visibility 10km or more. Broken Clouds 2000ft.

Neobrađeno: TAF USPP 261655Z 2618/2718 10005G16MPS 8000 -SHRA BKN016CB BECMG 2703/2704 9999 NSW BKN020

Trenutni satelitski snimci i slike kiše za 57.92°S 56.02°I

Marker lokacije postavljen je na 57.92°S 56.02°I. [Više]

Satelitski snimci u realnom vremenu kombinuju vidljivu svetlost tokom dana sa infracrvenim zračenjem tokom noći. Noću slika nije tamna jer infracrveno zračenje može otkriti temperaturne razlike. Nažalost, niski oblaci i magla teško se mogu razlikovati od temperature zemlje tako da mogu biti skoro nevidljivi tokom noći. Meteosat satelitski snimci za Evropu se ažuriraju u realnom vremenu na svakih 5 minuta. Slnimci GOES-16/GOES-17 (Severna i Južna Amerika) and Himawari (Azia) ažuriraju se na svakih 10 minuta.

Autorsko pravo 2021 EUMETSAT / meteoblue. / Autorsko pravo 2021 meteoblue

Radar i padavine kratka prognoza za 57.92°S 56.02°I

Rominjati
Svjetlo
Umjereno
Teška
Vrlo teško
Zdravo

Marker lokacije postavljen je na 57.92°S 56.02°I. Ova animacija prikazuje radar padavina za poslednji sat, kao i 1h prognozu. Пљусак кише или слаб снег може бити невидљив за радар. Интензитет падавина је кодиран у боји, у распону од светло плаве до наранџасте.